Atlanta, MI

3:47 PM EST on December 04, 2016 (GMT -0500)
East Twin Lake | | Change Station

Elev 1240 ft 44.87 °N, 84.32 °W | Updated 17 seconds ago

Snow
Snow Freezing Fog
32.5 °F
Feels Like 32 °F
N
0.0
Wind Variable Wind from SSW
Gusts 0.0 mph

Today
High -- | Low -- °F
--% Chance of Precip.
Yesterday
High -- | Low -- °F
Precip. -- in
Pressure 29.98 in
Visibility 0.5 miles
Clouds Few 500 ft
Overcast 1100 ft
Windchill 32 °F
Dew Point 28 °F
Humidity 84%
Rainfall 0.00 in
Snow Depth Not available.
7:58 AM 4:55 PM
Waxing Crescent, 25% visible
SPECI KGLR 042043Z AUTO 16007KT 1/2SM SN FZFG FEW005 OVC011 M01/M03 A2998 RMK AO2 P0002 T10061028
Pressure 29.98 in
Visibility 0.5 miles
Clouds Few 500 ft
Overcast 1100 ft
Windchill 32 °F
Dew Point 28 °F
Humidity 84%
Rainfall 0.00 in
Snow Depth Not available.
7:58 AM 4:55 PM
Waxing Crescent, 25% visible
SPECI KGLR 042043Z AUTO 16007KT 1/2SM SN FZFG FEW005 OVC011 M01/M03 A2998 RMK AO2 P0002 T10061028

10-Day Weather Forecast

Almanac

Astronomy

Dec. 04, 2016 Rise Set
Actual Time
Civil Twilight
Nautical Twilight
Astronomical Twilight
Moon
Length of Visible Light
Length of Day
Tomorrow will be .
, % of the Moon is Illuminated

Today's Extremes

State Highs State Lows

Community

WunderPhotos

Upload Photos

1,955,667 photos uploaded!

WunderBlog® & News

Nearby

Air Quality

  Air Quality AQ Index Pollutant
Not available.

Snow Depth

Station Depth Elevation

Earthquake Activity

City Distance Mag. Time & Date
Minimum magnitude displayed is 2.5.

Coastal Water Temperatures

Place Temperature

Stations

Nearby Weather Stations

Station Location Temp. Windchill Dew Point Humidity Wind Precip. Elev Updated Type
                   

Watches & Warnings

There are currently no watches in effect.